Terminal Aerodrome Forecast
Issued by NWS Wilmington, NC

Home | Current Version | Previous Version | Text Only | Print | Product List | Glossary On
Versions: 1 2 3 4 5 6 7 8 9 10 11 12 13 14 15 16 17 18 19 20 21
000
FTUS42 KILM 221423 AAC
TAFMYR
TAF AMD
KMYR 221423Z 2214/2312 VRB03KT P6SM VCSH BKN020
     FM221600 19008KT P6SM VCTS SCT025CB SCT070
     FM222100 19010KT P6SM SCT020
     FM230000 22008KT P6SM SCT070=

USA.gov is the U.S. government's official web portal to all federal, state and local government web resources and services.